Time,TemperatureF,DewpointF,PressureIn,WindDirection,WindDirectionDegrees,WindSpeedMPH,WindSpeedGustMPH,Humidity,HourlyPrecipIn,Conditions,Clouds,dailyrainin,SoftwareType,DateUTC
2013-09-25 00:12:00,43.2,35.5,29.91,NW,315,0.0,-999.0,74,-99.99,,,0.00,Acu-Link.com,2013-09-25 06:12:00,
2013-09-25 00:27:00,42.8,35.1,29.90,NNE,22,0.0,-999.0,74,-99.99,,,0.00,Acu-Link.com,2013-09-25 06:27:00,
2013-09-25 00:43:00,41.9,34.2,29.89,NW,315,0.0,-999.0,74,-99.99,,,0.00,Acu-Link.com,2013-09-25 06:43:00,
2013-09-25 00:58:00,41.0,34.0,29.89,SSW,202,0.0,-999.0,76,-99.99,,,0.00,Acu-Link.com,2013-09-25 06:58:00,
2013-09-25 01:13:00,39.9,34.9,29.88,NNW,337,0.0,-999.0,82,-99.99,,,0.00,Acu-Link.com,2013-09-25 07:13:00,
2013-09-25 01:28:00,40.1,34.7,29.88,WNW,292,0.0,-999.0,81,-99.99,,,0.00,Acu-Link.com,2013-09-25 07:28:00,
2013-09-25 01:44:00,40.5,35.1,29.87,West,270,0.0,-999.0,81,-99.99,,,0.00,Acu-Link.com,2013-09-25 07:44:00,
2013-09-25 01:59:00,40.5,35.4,29.86,ENE,67,0.0,-999.0,82,-99.99,,,0.00,Acu-Link.com,2013-09-25 07:59:00,
2013-09-25 02:15:00,40.3,35.3,29.85,North,0,0.0,-999.0,82,-99.99,,,0.00,Acu-Link.com,2013-09-25 08:15:00,
2013-09-25 02:30:00,39.6,34.6,29.85,West,270,0.0,-999.0,82,-99.99,,,0.00,Acu-Link.com,2013-09-25 08:30:00,
2013-09-25 02:46:00,39.7,35.0,29.84,West,270,0.0,-999.0,83,-99.99,,,0.00,Acu-Link.com,2013-09-25 08:46:00,
2013-09-25 03:01:00,39.9,35.2,29.84,NNW,337,0.0,-999.0,83,-99.99,,,0.00,Acu-Link.com,2013-09-25 09:01:00,
2013-09-25 03:16:00,39.9,35.2,29.84,NW,315,0.0,-999.0,83,-99.99,,,0.00,Acu-Link.com,2013-09-25 09:16:00,
2013-09-25 03:32:00,40.1,35.4,29.84,NNW,337,0.0,-999.0,83,-99.99,,,0.00,Acu-Link.com,2013-09-25 09:32:00,
2013-09-25 03:47:00,40.8,35.4,29.82,ESE,112,0.0,-999.0,81,-99.99,,,0.00,Acu-Link.com,2013-09-25 09:47:00,
2013-09-25 04:02:00,40.6,34.9,29.82,SE,135,0.0,-999.0,80,-99.99,,,0.00,Acu-Link.com,2013-09-25 10:02:00,
2013-09-25 04:17:00,41.4,32.7,29.82,NE,45,0.0,-999.0,71,-99.99,,,0.00,Acu-Link.com,2013-09-25 10:17:00,
2013-09-25 04:33:00,45.7,30.0,29.82,NNW,337,0.0,-999.0,54,-99.99,,,0.00,Acu-Link.com,2013-09-25 10:33:00,
2013-09-25 04:48:00,50.4,27.6,29.81,WNW,292,0.0,-999.0,41,-99.99,,,0.00,Acu-Link.com,2013-09-25 10:48:00,
2013-09-25 05:03:00,52.9,25.3,29.81,NE,45,0.0,-999.0,34,-99.99,,,0.00,Acu-Link.com,2013-09-25 11:03:00,
2013-09-25 05:19:00,54.0,24.8,29.81,West,270,0.0,-999.0,32,-99.99,,,0.00,Acu-Link.com,2013-09-25 11:19:00,
2013-09-25 05:34:00,53.4,25.7,29.81,West,270,0.0,-999.0,34,-99.99,,,0.00,Acu-Link.com,2013-09-25 11:34:00,
2013-09-25 05:49:00,49.6,31.7,29.81,West,270,0.0,-999.0,50,-99.99,,,0.00,Acu-Link.com,2013-09-25 11:49:00,
2013-09-25 06:04:00,49.6,27.5,29.81,North,0,0.0,-999.0,42,-99.99,,,0.00,Acu-Link.com,2013-09-25 12:04:00,
2013-09-25 06:20:00,51.8,25.7,29.81,NNW,337,0.0,-999.0,36,-99.99,,,0.00,Acu-Link.com,2013-09-25 12:20:00,
2013-09-25 06:35:00,55.0,25.7,29.80,ENE,67,0.0,-999.0,32,-99.99,,,0.00,Acu-Link.com,2013-09-25 12:35:00,
2013-09-25 06:50:00,55.4,26.8,29.80,ESE,112,0.0,-999.0,33,-99.99,,,0.00,Acu-Link.com,2013-09-25 12:50:00,
2013-09-25 07:05:00,55.6,27.0,29.79,East,90,0.0,-999.0,33,-99.99,,,0.00,Acu-Link.com,2013-09-25 13:05:00,
2013-09-25 07:21:00,55.9,27.2,29.79,NNE,22,0.0,-999.0,33,-99.99,,,0.00,Acu-Link.com,2013-09-25 13:21:00,
2013-09-25 07:36:00,53.8,31.3,29.79,WNW,292,0.0,-999.0,42,-99.99,,,0.00,Acu-Link.com,2013-09-25 13:36:00,
2013-09-25 07:51:00,52.0,31.3,29.79,West,270,0.0,-999.0,45,-99.99,,,0.00,Acu-Link.com,2013-09-25 13:51:00,
2013-09-25 08:06:00,52.7,31.4,29.78,WSW,247,0.0,-999.0,44,-99.99,,,0.00,Acu-Link.com,2013-09-25 14:06:00,
2013-09-25 08:21:00,53.1,32.3,29.79,West,270,0.0,-999.0,45,-99.99,,,0.00,Acu-Link.com,2013-09-25 14:21:00,
2013-09-25 08:36:00,54.0,31.4,29.78,SW,225,0.0,-999.0,42,-99.99,,,0.00,Acu-Link.com,2013-09-25 14:36:00,
2013-09-25 08:52:00,56.8,30.1,29.77,East,90,0.0,-999.0,36,-99.99,,,0.00,Acu-Link.com,2013-09-25 14:52:00,
2013-09-25 09:07:00,58.8,31.2,29.78,SSE,157,0.0,-999.0,35,-99.99,,,0.00,Acu-Link.com,2013-09-25 15:07:00,
2013-09-25 09:22:00,59.2,34.3,29.78,WSW,247,0.0,-999.0,39,-99.99,,,0.00,Acu-Link.com,2013-09-25 15:22:00,
2013-09-25 09:37:00,60.6,36.1,29.78,SSW,202,0.0,-999.0,40,-99.99,,,0.00,Acu-Link.com,2013-09-25 15:37:00,
2013-09-25 09:53:00,66.7,38.2,29.77,SE,135,0.0,-999.0,35,-99.99,,,0.00,Acu-Link.com,2013-09-25 15:53:00,
2013-09-25 10:08:00,70.9,36.2,29.76,NNW,337,1.7,-999.0,28,-99.99,,,0.00,Acu-Link.com,2013-09-25 16:08:00,
2013-09-25 10:23:00,75.4,37.1,29.75,SSE,157,0.0,-999.0,25,-99.99,,,0.00,Acu-Link.com,2013-09-25 16:23:00,
2013-09-25 10:38:00,75.4,38.1,29.75,NNE,22,0.0,-999.0,26,-99.99,,,0.00,Acu-Link.com,2013-09-25 16:38:00,
2013-09-25 10:54:00,76.6,39.1,29.75,ESE,112,3.2,-999.0,26,-99.99,,,0.00,Acu-Link.com,2013-09-25 16:54:00,
2013-09-25 11:09:00,78.4,38.6,29.74,SSE,157,0.0,-999.0,24,-99.99,,,0.00,Acu-Link.com,2013-09-25 17:09:00,
2013-09-25 11:24:00,77.4,36.7,29.73,NW,315,0.0,-999.0,23,-99.99,,,0.00,Acu-Link.com,2013-09-25 17:24:00,
2013-09-25 11:39:00,78.1,36.1,29.72,South,180,3.2,-999.0,22,-99.99,,,0.00,Acu-Link.com,2013-09-25 17:39:00,
2013-09-25 11:55:00,77.4,35.6,29.72,North,0,1.1,-999.0,22,-99.99,,,0.00,Acu-Link.com,2013-09-25 17:55:00,
2013-09-25 12:10:00,79.7,37.5,29.71,South,180,1.7,-999.0,22,-99.99,,,0.00,Acu-Link.com,2013-09-25 18:10:00,
2013-09-25 12:25:00,80.2,36.7,29.71,ESE,112,0.0,-999.0,21,-99.99,,,0.00,Acu-Link.com,2013-09-25 18:25:00,
2013-09-25 12:41:00,78.8,37.9,29.68,West,270,1.7,-999.0,23,-99.99,,,0.00,Acu-Link.com,2013-09-25 18:41:00,
2013-09-25 12:56:00,80.4,35.6,29.68,WSW,247,0.0,-999.0,20,-99.99,,,0.00,Acu-Link.com,2013-09-25 18:56:00,
2013-09-25 13:11:00,85.3,40.9,29.66,South,180,0.0,-999.0,21,-99.99,,,0.00,Acu-Link.com,2013-09-25 19:11:00,
2013-09-25 13:26:00,85.1,33.8,29.66,NNW,337,0.0,-999.0,16,-99.99,,,0.00,Acu-Link.com,2013-09-25 19:26:00,
2013-09-25 13:41:00,84.4,33.3,29.65,SSE,157,2.7,-999.0,16,-99.99,,,0.00,Acu-Link.com,2013-09-25 19:41:00,
2013-09-25 13:56:00,80.4,30.1,29.64,WSW,247,3.7,-999.0,16,-99.99,,,0.00,Acu-Link.com,2013-09-25 19:56:00,
2013-09-25 14:12:00,81.3,30.8,29.62,WSW,247,1.1,-999.0,16,-99.99,,,0.00,Acu-Link.com,2013-09-25 20:12:00,
2013-09-25 14:27:00,83.7,31.1,29.61,SSW,202,2.2,-999.0,15,-99.99,,,0.00,Acu-Link.com,2013-09-25 20:27:00,
2013-09-25 14:42:00,82.4,30.1,29.60,WNW,292,0.0,-999.0,15,-99.99,,,0.00,Acu-Link.com,2013-09-25 20:42:00,
2013-09-25 14:58:00,84.7,31.9,29.60,NNW,337,0.0,-999.0,15,-99.99,,,0.00,Acu-Link.com,2013-09-25 20:58:00,
2013-09-25 15:13:00,83.7,31.1,29.59,SSW,202,0.0,-999.0,15,-99.99,,,0.00,Acu-Link.com,2013-09-25 21:13:00,
2013-09-25 15:28:00,83.7,31.1,29.58,NNE,22,4.2,-999.0,15,-99.99,,,0.00,Acu-Link.com,2013-09-25 21:28:00,
2013-09-25 15:43:00,83.1,33.8,29.57,WNW,292,5.8,-999.0,17,-99.99,,,0.00,Acu-Link.com,2013-09-25 21:43:00,
2013-09-25 15:59:00,83.7,32.7,29.57,West,270,2.2,-999.0,16,-99.99,,,0.00,Acu-Link.com,2013-09-25 21:59:00,
2013-09-25 16:14:00,82.6,31.8,29.57,West,270,2.7,-999.0,16,-99.99,,,0.00,Acu-Link.com,2013-09-25 22:14:00,
2013-09-25 16:29:00,83.5,32.6,29.56,ENE,67,6.3,-999.0,16,-99.99,,,0.00,Acu-Link.com,2013-09-25 22:29:00,
2013-09-25 16:44:00,81.5,29.4,29.56,WSW,247,1.1,-999.0,15,-99.99,,,0.00,Acu-Link.com,2013-09-25 22:44:00,
2013-09-25 17:00:00,82.6,30.3,29.55,NW,315,3.7,-999.0,15,-99.99,,,0.00,Acu-Link.com,2013-09-25 23:00:00,
2013-09-25 17:15:00,80.6,30.3,29.55,SW,225,0.0,-999.0,16,-99.99,,,0.00,Acu-Link.com,2013-09-25 23:15:00,
2013-09-25 17:30:00,80.6,30.3,29.54,South,180,2.2,-999.0,16,-99.99,,,0.00,Acu-Link.com,2013-09-25 23:30:00,
2013-09-25 17:46:00,80.1,31.3,29.53,SSE,157,1.1,-999.0,17,-99.99,,,0.00,Acu-Link.com,2013-09-25 23:46:00,
2013-09-25 18:01:00,75.0,29.9,29.53,NNE,22,1.7,-999.0,19,-99.99,,,0.00,Acu-Link.com,2013-09-26 00:01:00,
2013-09-25 18:16:00,73.0,29.6,29.54,West,270,0.0,-999.0,20,-99.99,,,0.00,Acu-Link.com,2013-09-26 00:16:00,
2013-09-25 18:32:00,70.9,30.2,29.54,WSW,247,0.0,-999.0,22,-99.99,,,0.00,Acu-Link.com,2013-09-26 00:32:00,
2013-09-25 18:47:00,68.9,29.6,29.54,WSW,247,0.0,-999.0,23,-99.99,,,0.00,Acu-Link.com,2013-09-26 00:47:00,
2013-09-25 19:02:00,67.5,30.4,29.55,ESE,112,1.1,-999.0,25,-99.99,,,0.00,Acu-Link.com,2013-09-26 01:02:00,
2013-09-25 19:17:00,66.9,29.9,29.55,WSW,247,0.0,-999.0,25,-99.99,,,0.00,Acu-Link.com,2013-09-26 01:17:00,
2013-09-25 19:33:00,65.7,29.9,29.55,NW,315,0.0,-999.0,26,-99.99,,,0.00,Acu-Link.com,2013-09-26 01:33:00,
2013-09-25 19:48:00,64.4,29.7,29.56,NNW,337,0.0,-999.0,27,-99.99,,,0.00,Acu-Link.com,2013-09-26 01:48:00,
2013-09-25 20:04:00,62.8,29.2,29.57,West,270,0.0,-999.0,28,-99.99,,,0.00,Acu-Link.com,2013-09-26 02:04:00,
2013-09-25 20:19:00,62.1,29.5,29.57,East,90,0.0,-999.0,29,-99.99,,,0.00,Acu-Link.com,2013-09-26 02:19:00,
2013-09-25 20:34:00,61.5,29.8,29.58,West,270,0.0,-999.0,30,-99.99,,,0.00,Acu-Link.com,2013-09-26 02:34:00,
2013-09-25 20:50:00,60.3,31.1,29.58,NE,45,0.0,-999.0,33,-99.99,,,0.00,Acu-Link.com,2013-09-26 02:50:00,
2013-09-25 21:05:00,62.1,31.1,29.58,ESE,112,0.0,-999.0,31,-99.99,,,0.00,Acu-Link.com,2013-09-26 03:05:00,
2013-09-25 21:20:00,61.0,31.7,29.59,ESE,112,0.0,-999.0,33,-99.99,,,0.00,Acu-Link.com,2013-09-26 03:20:00,
2013-09-25 21:35:00,62.1,31.9,29.59,SW,225,1.7,-999.0,32,-99.99,,,0.00,Acu-Link.com,2013-09-26 03:35:00,
2013-09-25 21:51:00,63.7,31.7,29.58,South,180,0.0,-999.0,30,-99.99,,,0.00,Acu-Link.com,2013-09-26 03:51:00,
2013-09-25 22:06:00,62.4,32.2,29.59,NNW,337,0.0,-999.0,32,-99.99,,,0.00,Acu-Link.com,2013-09-26 04:06:00,
2013-09-25 22:21:00,61.5,32.1,29.58,SSW,202,0.0,-999.0,33,-99.99,,,0.00,Acu-Link.com,2013-09-26 04:21:00,
2013-09-25 22:37:00,62.6,31.5,29.58,NE,45,0.0,-999.0,31,-99.99,,,0.00,Acu-Link.com,2013-09-26 04:37:00,
2013-09-25 22:52:00,63.1,31.2,29.58,SSE,157,0.0,-999.0,30,-99.99,,,0.00,Acu-Link.com,2013-09-26 04:52:00,
2013-09-25 23:07:00,62.6,30.7,29.57,SSW,202,0.0,-999.0,30,-99.99,,,0.00,Acu-Link.com,2013-09-26 05:07:00,
2013-09-25 23:23:00,62.1,31.1,29.58,South,180,0.0,-999.0,31,-99.99,,,0.00,Acu-Link.com,2013-09-26 05:23:00,
2013-09-25 23:38:00,61.0,31.7,29.58,SE,135,0.0,-999.0,33,-99.99,,,0.00,Acu-Link.com,2013-09-26 05:38:00,
2013-09-25 23:53:00,60.3,31.1,29.58,WNW,292,0.0,-999.0,33,-99.99,,,0.00,Acu-Link.com,2013-09-26 05:53:00,